Time;durP1;ratioP1;P1;durP2;ratioP2;P2;SDS_P1;SDS_P2;PMS_P1;PMS_P2;Temp;Humidity;BMP_temperature;BMP_pressure;BME280_temperature;BME280_humidity;BME280_pressure;Samples;Min_cycle;Max_cycle;Signal;HPM_P1;HPM_P2
2023/06/19 00:00:15;;;;;;;11.63;9.18;;;22.40;65.30;;;;;;5113186;28;20058;-74
2023/06/19 00:02:41;;;;;;;11.73;8.57;;;22.40;66.60;;;;;;5113827;28;20049;-73
2023/06/19 00:05:08;;;;;;;20.50;9.02;;;22.30;67.40;;;;;;5113289;28;20035;-72
2023/06/19 00:07:35;;;;;;;13.75;8.68;;;22.30;67.10;;;;;;5113021;28;20027;-72
2023/06/19 00:10:01;;;;;;;14.60;9.15;;;22.30;67.90;;;;;;5095384;28;20038;-73
2023/06/19 00:12:26;;;;;;;11.07;9.15;;;22.30;67.90;;;;;;5113017;28;20498;-72
2023/06/19 00:14:52;;;;;;;15.25;8.75;;;22.20;68.40;;;;;;5113092;28;20349;-71
2023/06/19 00:17:18;;;;;;;12.93;9.10;;;22.20;68.80;;;;;;5113058;28;20039;-72
2023/06/19 00:19:44;;;;;;;12.60;8.73;;;22.10;68.90;;;;;;5113617;28;20024;-72
2023/06/19 00:22:10;;;;;;;10.85;9.05;;;22.10;68.80;;;;;;5113075;28;20038;-77
2023/06/19 00:24:35;;;;;;;10.52;8.82;;;22.10;69.30;;;;;;5113300;28;20028;-72
2023/06/19 00:27:02;;;;;;;11.75;9.90;;;22.00;69.20;;;;;;5113501;28;20027;-72
2023/06/19 00:29:31;;;;;;;11.85;8.75;;;22.00;69.70;;;;;;5112492;28;20380;-72
2023/06/19 00:31:57;;;;;;;10.20;8.82;;;22.00;69.90;;;;;;5112941;28;20514;-72
2023/06/19 00:34:25;;;;;;;14.88;8.50;;;21.90;70.00;;;;;;5112819;28;20036;-72
2023/06/19 00:36:56;;;;;;;11.90;8.90;;;21.90;70.70;;;;;;5113152;28;20140;-72
2023/06/19 00:39:25;;;;;;;17.38;9.45;;;21.90;70.80;;;;;;5112951;28;20023;-72
2023/06/19 00:41:54;;;;;;;12.32;8.52;;;21.80;71.50;;;;;;5113087;28;20035;-72
2023/06/19 00:44:20;;;;;;;10.13;7.95;;;21.80;71.90;;;;;;5112795;28;20024;-72
2023/06/19 00:46:45;;;;;;;10.65;8.45;;;21.80;72.30;;;;;;5113290;28;20048;-71
2023/06/19 00:49:12;;;;;;;10.52;8.30;;;21.70;72.70;;;;;;5113031;28;20023;-72
2023/06/19 00:51:38;;;;;;;12.88;8.68;;;21.70;72.50;;;;;;5095245;28;20060;-72
2023/06/19 00:54:04;;;;;;;10.05;8.02;;;21.60;73.30;;;;;;5116518;28;20083;-72
2023/06/19 00:56:30;;;;;;;10.23;8.13;;;21.50;74.00;;;;;;5116675;28;20027;-72
2023/06/19 00:58:56;;;;;;;12.73;8.00;;;21.50;73.50;;;;;;5097338;28;20076;-72
2023/06/19 01:01:23;;;;;;;10.68;8.40;;;21.40;74.10;;;;;;5112389;28;20523;-72
2023/06/19 01:03:49;;;;;;;10.90;7.88;;;21.40;74.60;;;;;;5113339;28;20364;-72
2023/06/19 01:06:21;;;;;;;12.18;8.52;;;21.40;74.80;;;;;;5112313;28;20424;-72
2023/06/19 01:08:59;;;;;;;9.82;7.88;;;21.30;74.60;;;;;;5113150;28;20027;-72
2023/06/19 01:11:31;;;;;;;9.70;7.97;;;21.30;74.60;;;;;;5112540;28;20028;-71
2023/06/19 01:14:05;;;;;;;16.85;9.00;;;21.30;74.90;;;;;;5113123;28;20047;-72
2023/06/19 01:16:31;;;;;;;11.35;8.38;;;21.30;74.90;;;;;;5112466;28;20375;-71
2023/06/19 01:18:58;;;;;;;10.55;7.82;;;21.20;75.00;;;;;;5114712;28;20038;-71
2023/06/19 01:21:23;;;;;;;9.98;8.50;;;21.20;75.00;;;;;;5118922;27;20543;-71
2023/06/19 01:23:49;;;;;;;15.40;8.45;;;21.20;75.00;;;;;;5098595;28;20119;-74
2023/06/19 01:26:17;;;;;;;11.05;7.68;;;21.10;75.20;;;;;;5116284;28;20024;-75
2023/06/19 01:28:44;;;;;;;9.85;7.95;;;21.10;75.10;;;;;;5098277;28;20032;-73
2023/06/19 01:31:22;;;;;;;12.63;8.20;;;21.20;75.60;;;;;;5116609;28;20063;-73
2023/06/19 01:33:51;;;;;;;11.07;8.00;;;21.10;75.90;;;;;;5116758;28;20034;-73
2023/06/19 01:36:19;;;;;;;10.25;8.00;;;21.00;75.80;;;;;;5119256;27;20078;-73
2023/06/19 01:38:47;;;;;;;11.60;9.02;;;21.00;75.70;;;;;;5098364;28;20086;-73
2023/06/19 01:41:15;;;;;;;11.38;8.32;;;21.00;76.20;;;;;;5116353;28;20098;-72
2023/06/19 01:43:41;;;;;;;9.40;8.35;;;21.00;75.80;;;;;;5115770;28;20468;-71
2023/06/19 01:46:06;;;;;;;13.55;9.10;;;21.00;76.00;;;;;;5116172;28;20043;-72
2023/06/19 01:48:32;;;;;;;10.77;8.52;;;20.90;76.30;;;;;;5115776;28;20026;-72
2023/06/19 01:50:57;;;;;;;9.20;7.57;;;20.90;76.40;;;;;;5098037;28;20027;-72
2023/06/19 01:53:23;;;;;;;12.25;8.30;;;20.90;77.00;;;;;;5097204;28;20115;-72
2023/06/19 01:55:49;;;;;;;12.02;9.27;;;20.90;76.80;;;;;;5115689;28;20030;-72
2023/06/19 01:58:14;;;;;;;12.35;9.90;;;20.90;77.70;;;;;;5115781;28;20043;-72
2023/06/19 02:00:40;;;;;;;13.02;10.18;;;20.90;78.10;;;;;;5097263;28;20074;-72
2023/06/19 02:03:06;;;;;;;13.27;9.02;;;20.90;78.40;;;;;;5115667;28;20079;-72
2023/06/19 02:05:31;;;;;;;11.15;9.95;;;20.90;79.00;;;;;;5114834;28;20494;-72
2023/06/19 02:07:57;;;;;;;13.13;9.60;;;20.80;79.50;;;;;;5115943;28;20027;-72
2023/06/19 02:10:23;;;;;;;14.90;10.98;;;20.80;79.80;;;;;;5115308;28;20020;-72
2023/06/19 02:12:49;;;;;;;14.88;10.40;;;20.80;79.90;;;;;;5097527;28;20062;-72
2023/06/19 02:15:14;;;;;;;14.60;11.05;;;20.80;79.80;;;;;;5115717;28;20107;-72
2023/06/19 02:17:42;;;;;;;15.60;10.77;;;20.70;79.90;;;;;;5114943;28;20100;-72
2023/06/19 02:20:09;;;;;;;16.35;11.10;;;20.70;80.10;;;;;;5115597;28;20098;-71
2023/06/19 02:22:35;;;;;;;13.02;10.52;;;20.70;80.40;;;;;;5080228;28;20031;-72
2023/06/19 02:25:00;;;;;;;15.07;11.07;;;20.70;81.00;;;;;;5115498;28;20036;-72
2023/06/19 02:27:26;;;;;;;14.23;11.20;;;20.70;81.50;;;;;;5115085;28;20023;-72
2023/06/19 02:29:52;;;;;;;18.05;10.73;;;20.60;81.50;;;;;;5097151;28;20080;-72
2023/06/19 02:32:17;;;;;;;12.55;10.55;;;20.60;82.30;;;;;;5115414;28;20547;-71
2023/06/19 02:34:45;;;;;;;15.48;11.57;;;20.50;82.70;;;;;;5114758;28;20026;-72
2023/06/19 02:37:10;;;;;;;15.15;11.05;;;20.50;82.80;;;;;;5097056;28;20039;-72
2023/06/19 02:39:36;;;;;;;15.80;11.63;;;20.40;83.40;;;;;;5114863;28;20024;-72
2023/06/19 02:42:02;;;;;;;15.95;11.90;;;20.40;84.20;;;;;;5115438;28;20032;-72
2023/06/19 02:44:27;;;;;;;12.68;11.27;;;20.40;84.20;;;;;;5114477;28;20392;-72
2023/06/19 02:46:53;;;;;;;15.93;10.93;;;20.40;84.30;;;;;;5114525;28;20063;-72
2023/06/19 02:49:19;;;;;;;18.10;11.35;;;20.30;84.60;;;;;;5115299;28;20031;-72
2023/06/19 02:51:44;;;;;;;18.50;11.38;;;20.30;84.80;;;;;;5114367;28;20062;-72
2023/06/19 02:54:10;;;;;;;16.77;11.48;;;20.30;84.80;;;;;;5114923;28;20032;-72
2023/06/19 02:56:35;;;;;;;13.60;11.90;;;20.30;85.30;;;;;;5114363;28;20561;-72
2023/06/19 02:59:01;;;;;;;14.65;11.32;;;20.20;86.10;;;;;;5133311;27;20100;-72
2023/06/19 03:01:27;;;;;;;16.17;11.73;;;20.30;86.10;;;;;;5134971;27;20035;-72
2023/06/19 03:03:52;;;;;;;15.15;11.70;;;20.20;86.60;;;;;;5135204;27;20027;-72
2023/06/19 03:06:18;;;;;;;13.85;11.38;;;20.20;86.90;;;;;;5135224;27;20028;-71
2023/06/19 03:08:44;;;;;;;16.23;12.60;;;20.30;86.90;;;;;;5134836;27;20023;-72
2023/06/19 03:11:11;;;;;;;17.92;13.00;;;20.20;87.40;;;;;;5134799;27;20115;-73
2023/06/19 03:13:49;;;;;;;17.88;12.50;;;20.20;87.60;;;;;;5134638;27;20027;-73
2023/06/19 03:16:15;;;;;;;18.67;12.25;;;20.10;87.50;;;;;;5135104;27;20082;-72
2023/06/19 03:18:44;;;;;;;18.23;12.07;;;20.20;88.20;;;;;;5116135;27;20528;-73
2023/06/19 03:21:10;;;;;;;13.05;11.18;;;20.10;88.20;;;;;;5134967;27;20482;-72
2023/06/19 03:23:36;;;;;;;15.05;11.93;;;20.10;88.40;;;;;;5115972;27;20051;-72
2023/06/19 03:26:01;;;;;;;16.17;11.65;;;20.10;88.60;;;;;;5121615;27;20529;-72
2023/06/19 03:28:27;;;;;;;14.10;11.35;;;20.10;88.60;;;;;;5113613;28;20085;-73
2023/06/19 03:30:53;;;;;;;15.90;11.63;;;20.10;88.70;;;;;;5113901;28;20020;-72
2023/06/19 03:33:19;;;;;;;15.25;12.52;;;20.10;89.50;;;;;;5115141;27;20030;-72
2023/06/19 03:35:44;;;;;;;23.33;13.38;;;20.10;89.40;;;;;;5113399;28;20052;-73
2023/06/19 03:38:10;;;;;;;17.77;12.60;;;20.10;89.40;;;;;;5095835;28;20122;-72
2023/06/19 03:40:36;;;;;;;19.90;12.70;;;20.20;89.50;;;;;;5113225;28;20032;-73
2023/06/19 03:43:01;;;;;;;22.00;13.00;;;20.20;89.80;;;;;;5113724;28;20030;-72
2023/06/19 03:45:27;;;;;;;17.25;13.55;;;20.20;89.90;;;;;;5113762;28;20122;-73
2023/06/19 03:47:53;;;;;;;19.30;13.57;;;20.20;90.00;;;;;;5113971;28;20022;-72
2023/06/19 03:50:19;;;;;;;24.95;13.55;;;20.20;90.30;;;;;;5113938;28;20035;-73
2023/06/19 03:52:45;;;;;;;17.83;13.02;;;20.20;90.50;;;;;;5113451;28;20245;-72
2023/06/19 03:55:10;;;;;;;19.83;13.25;;;20.20;90.60;;;;;;5113448;28;20387;-73
2023/06/19 03:57:36;;;;;;;17.85;13.13;;;20.10;90.80;;;;;;5113342;28;20111;-73
2023/06/19 04:00:05;;;;;;;16.52;12.90;;;20.20;90.90;;;;;;5095442;28;20027;-73
2023/06/19 04:02:33;;;;;;;18.55;14.23;;;20.20;90.80;;;;;;5113315;28;20513;-73
2023/06/19 04:04:58;;;;;;;17.92;14.02;;;20.20;91.00;;;;;;5113513;28;20036;-72
2023/06/19 04:07:24;;;;;;;22.65;14.15;;;20.20;91.40;;;;;;5113585;28;20024;-72
2023/06/19 04:09:50;;;;;;;19.65;13.52;;;20.20;91.40;;;;;;5113020;28;20472;-73
2023/06/19 04:12:15;;;;;;;24.92;14.65;;;20.30;91.30;;;;;;5095319;28;20053;-72
2023/06/19 04:14:41;;;;;;;19.23;13.60;;;20.40;91.10;;;;;;5112977;28;20457;-72
2023/06/19 04:17:07;;;;;;;17.30;12.73;;;20.40;91.00;;;;;;5113162;28;20027;-72
2023/06/19 04:19:32;;;;;;;17.45;13.25;;;20.50;91.00;;;;;;5094791;28;20114;-73
2023/06/19 04:21:58;;;;;;;19.08;13.15;;;20.60;90.80;;;;;;5113119;28;20024;-72
2023/06/19 04:24:23;;;;;;;19.67;14.13;;;20.80;90.70;;;;;;5113418;28;20097;-72
2023/06/19 04:26:49;;;;;;;16.98;12.57;;;20.90;90.20;;;;;;5112939;28;20024;-72
2023/06/19 04:29:16;;;;;;;20.30;14.38;;;21.00;90.00;;;;;;5095010;28;20034;-73
2023/06/19 04:31:46;;;;;;;19.38;13.85;;;21.10;89.80;;;;;;5094590;28;20020;-72
2023/06/19 04:34:20;;;;;;;22.07;13.50;;;21.20;88.50;;;;;;5095020;28;20023;-72
2023/06/19 04:36:46;;;;;;;19.08;13.75;;;21.30;87.80;;;;;;5112872;28;20072;-72
2023/06/19 04:39:12;;;;;;;19.23;13.18;;;21.50;86.00;;;;;;5095017;28;20035;-72
2023/06/19 04:41:38;;;;;;;19.25;13.35;;;21.60;85.40;;;;;;5112833;28;20399;-72
2023/06/19 04:44:05;;;;;;;17.42;12.55;;;21.90;84.30;;;;;;5113244;28;20031;-72
2023/06/19 04:46:30;;;;;;;19.48;12.23;;;22.10;82.90;;;;;;5112366;28;20135;-72
2023/06/19 04:48:56;;;;;;;16.00;12.40;;;22.30;81.70;;;;;;5113128;28;20055;-72
2023/06/19 04:51:21;;;;;;;17.85;12.43;;;22.60;81.00;;;;;;5118749;28;20123;-72
2023/06/19 04:53:47;;;;;;;27.30;11.95;;;22.90;79.50;;;;;;5135363;27;20023;-72
2023/06/19 04:56:14;;;;;;;20.88;12.68;;;23.30;78.70;;;;;;5137721;27;20360;-72
2023/06/19 04:58:45;;;;;;;17.67;11.27;;;23.60;76.90;;;;;;5137357;27;20035;-72
2023/06/19 05:01:15;;;;;;;19.02;12.02;;;24.10;76.10;;;;;;5137804;27;20023;-72
2023/06/19 05:03:45;;;;;;;18.85;11.27;;;24.70;72.10;;;;;;5136988;27;20106;-72
2023/06/19 05:06:11;;;;;;;19.60;11.45;;;25.10;70.20;;;;;;5102191;27;20031;-72
2023/06/19 05:08:37;;;;;;;15.48;10.85;;;25.60;66.90;;;;;;5137485;27;20166;-73
2023/06/19 05:11:03;;;;;;;14.85;10.93;;;26.00;65.00;;;;;;5119220;27;20467;-74
2023/06/19 05:13:29;;;;;;;17.27;12.57;;;26.60;63.70;;;;;;5137472;27;20019;-72
2023/06/19 05:15:55;;;;;;;16.17;11.73;;;27.00;61.80;;;;;;5136609;27;20067;-73
2023/06/19 05:18:22;;;;;;;14.00;11.50;;;27.50;59.30;;;;;;5137411;27;20027;-72
2023/06/19 05:20:47;;;;;;;19.15;11.50;;;27.90;58.20;;;;;;5136542;27;20031;-73
2023/06/19 05:23:13;;;;;;;15.18;10.45;;;28.10;57.60;;;;;;5137444;27;20325;-73
2023/06/19 05:25:39;;;;;;;17.15;10.65;;;28.10;57.00;;;;;;5136444;27;20035;-73
2023/06/19 05:28:04;;;;;;;16.80;10.65;;;28.40;56.80;;;;;;5137125;27;20023;-72
2023/06/19 05:30:30;;;;;;;14.63;10.88;;;28.50;55.90;;;;;;5126864;27;20024;-73
2023/06/19 05:32:56;;;;;;;11.88;10.07;;;28.70;54.60;;;;;;5115759;28;20023;-72
2023/06/19 05:35:21;;;;;;;15.55;10.13;;;28.80;53.70;;;;;;5098116;28;20422;-72
2023/06/19 05:37:47;;;;;;;14.55;10.23;;;28.80;54.10;;;;;;5115962;28;20543;-72
2023/06/19 05:40:13;;;;;;;17.80;11.07;;;28.60;54.20;;;;;;5118470;27;20023;-73
2023/06/19 05:42:40;;;;;;;11.23;9.65;;;28.50;54.00;;;;;;5117953;27;20064;-72
2023/06/19 05:45:06;;;;;;;15.27;10.73;;;28.60;54.20;;;;;;5136098;27;20042;-72
2023/06/19 05:47:31;;;;;;;11.60;10.05;;;28.80;52.50;;;;;;5135509;28;20027;-72
2023/06/19 05:49:57;;;;;;;14.20;10.32;;;28.90;53.10;;;;;;5134550;28;20383;-73
2023/06/19 05:52:23;;;;;;;11.10;9.55;;;29.00;52.60;;;;;;5135086;28;20025;-73
2023/06/19 05:54:49;;;;;;;15.30;9.30;;;29.20;51.80;;;;;;5134830;28;20442;-73
2023/06/19 05:57:16;;;;;;;12.15;9.65;;;29.40;51.80;;;;;;5117187;28;20031;-72
2023/06/19 05:59:42;;;;;;;12.63;9.30;;;29.50;50.60;;;;;;5135673;28;20023;-73
2023/06/19 06:02:07;;;;;;;11.07;8.80;;;30.00;50.20;;;;;;5136502;28;20031;-73
2023/06/19 06:04:37;;;;;;;10.45;8.93;;;30.30;49.70;;;;;;5135254;27;20019;-72
2023/06/19 06:07:02;;;;;;;8.63;7.57;;;30.60;49.60;;;;;;5117247;28;20072;-72
2023/06/19 06:09:28;;;;;;;8.65;7.53;;;31.10;47.60;;;;;;5134861;28;20421;-72
2023/06/19 06:11:53;;;;;;;8.88;7.20;;;31.40;46.60;;;;;;5115993;28;20048;-73
2023/06/19 06:14:19;;;;;;;7.50;6.70;;;31.70;45.30;;;;;;5116803;28;20023;-73
2023/06/19 06:16:45;;;;;;;8.98;6.78;;;32.10;45.50;;;;;;5134611;28;20034;-73
2023/06/19 06:19:10;;;;;;;7.80;6.25;;;32.60;45.20;;;;;;5116511;28;20083;-73
2023/06/19 06:21:36;;;;;;;10.55;6.75;;;33.00;44.00;;;;;;5116113;28;20075;-75
2023/06/19 06:24:02;;;;;;;8.43;6.72;;;33.60;41.70;;;;;;5116598;28;20030;-71
2023/06/19 06:26:28;;;;;;;8.43;6.43;;;33.90;40.60;;;;;;5116220;28;20027;-72
2023/06/19 06:28:55;;;;;;;10.40;6.70;;;34.40;39.80;;;;;;5115612;28;20022;-73
2023/06/19 06:31:22;;;;;;;7.88;6.10;;;34.70;39.50;;;;;;5134380;28;20476;-73
2023/06/19 06:33:48;;;;;;;8.23;6.85;;;35.10;39.10;;;;;;5134126;28;20031;-71
2023/06/19 06:36:15;;;;;;;7.95;6.10;;;35.30;37.60;;;;;;5116006;28;20038;-72
2023/06/19 06:38:41;;;;;;;14.15;6.38;;;35.40;38.30;;;;;;5134095;28;20062;-73
2023/06/19 06:41:08;;;;;;;8.75;6.22;;;35.90;37.00;;;;;;5134209;28;20470;-74
2023/06/19 06:43:33;;;;;;;8.35;5.60;;;36.20;36.40;;;;;;5134320;28;20079;-72
2023/06/19 06:45:59;;;;;;;7.60;5.15;;;36.60;36.00;;;;;;5094235;27;1121044;-72
2023/06/19 06:48:25;;;;;;;6.63;5.93;;;36.60;35.40;;;;;;5117140;27;20118;-72
2023/06/19 06:50:58;;;;;;;8.60;5.97;;;36.70;35.90;;;;;;5134604;27;20077;-73
2023/06/19 06:53:25;;;;;;;6.63;5.80;;;36.80;35.30;;;;;;5097520;28;20460;-71
2023/06/19 06:55:51;;;;;;;7.63;5.78;;;36.80;35.30;;;;;;5113952;28;20035;-71
2023/06/19 06:58:18;;;;;;;6.35;5.55;;;36.60;35.10;;;;;;5114414;28;20035;-71
2023/06/19 07:00:44;;;;;;;9.35;6.47;;;37.00;35.30;;;;;;5113994;28;20114;-72
2023/06/19 07:03:09;;;;;;;8.15;5.93;;;36.90;34.70;;;;;;5095894;28;20111;-71
2023/06/19 07:05:35;;;;;;;6.00;5.40;;;37.20;35.10;;;;;;5114745;28;20035;-72
2023/06/19 07:08:01;;;;;;;9.05;5.70;;;37.20;34.50;;;;;;5113709;28;20030;-72
2023/06/19 07:10:26;;;;;;;8.75;6.35;;;37.30;34.60;;;;;;5114400;28;20096;-72
2023/06/19 07:12:52;;;;;;;7.30;6.55;;;37.10;34.60;;;;;;5095430;28;20023;-72
2023/06/19 07:15:18;;;;;;;6.72;5.90;;;37.20;34.30;;;;;;5095532;28;20081;-72
2023/06/19 07:17:45;;;;;;;7.70;5.60;;;37.40;34.60;;;;;;5095237;28;20031;-72
2023/06/19 07:20:11;;;;;;;7.50;5.93;;;37.30;35.40;;;;;;5114264;28;20111;-73
2023/06/19 07:22:37;;;;;;;6.22;5.65;;;37.20;34.70;;;;;;5113702;28;20031;-72
2023/06/19 07:25:04;;;;;;;9.45;5.68;;;37.10;34.80;;;;;;5113482;28;20376;-71
2023/06/19 07:27:30;;;;;;;8.32;5.88;;;36.90;34.60;;;;;;5113558;28;20019;-71
2023/06/19 07:29:55;;;;;;;7.40;5.85;;;36.90;34.90;;;;;;5113454;28;20027;-71
2023/06/19 07:32:21;;;;;;;10.32;6.13;;;37.20;35.90;;;;;;5113590;28;20035;-73
2023/06/19 07:34:47;;;;;;;7.10;6.07;;;37.40;35.50;;;;;;5113421;28;20024;-73
2023/06/19 07:37:17;;;;;;;8.75;6.75;;;37.20;34.30;;;;;;5113824;28;20107;-73
2023/06/19 07:39:47;;;;;;;9.30;6.40;;;37.10;34.50;;;;;;5115999;27;20015;-73
2023/06/19 07:42:14;;;;;;;12.18;6.50;;;37.30;35.30;;;;;;5113839;28;20368;-73
2023/06/19 07:44:40;;;;;;;7.63;6.82;;;37.50;35.10;;;;;;5113725;28;20023;-72
2023/06/19 07:47:07;;;;;;;9.02;6.28;;;37.20;34.40;;;;;;5116496;27;20055;-73
2023/06/19 07:49:32;;;;;;;7.55;5.80;;;37.00;34.80;;;;;;5134063;27;20513;-73
2023/06/19 07:51:58;;;;;;;7.53;5.88;;;36.50;35.20;;;;;;5133719;27;20031;-71
2023/06/19 07:54:24;;;;;;;10.40;6.53;;;36.40;36.20;;;;;;5133637;27;20511;-73
2023/06/19 07:56:49;;;;;;;8.18;5.82;;;36.50;35.70;;;;;;5133451;27;20027;-71
2023/06/19 07:59:16;;;;;;;8.65;5.70;;;36.60;35.50;;;;;;5115391;27;20027;-73
2023/06/19 08:01:42;;;;;;;7.25;6.22;;;36.40;35.60;;;;;;5133852;27;20150;-73
2023/06/19 08:04:08;;;;;;;8.98;6.10;;;36.60;36.60;;;;;;5133775;27;20031;-72
2023/06/19 08:06:33;;;;;;;8.82;6.15;;;36.80;36.10;;;;;;5133822;27;20114;-73
2023/06/19 08:08:59;;;;;;;8.18;6.07;;;37.10;36.00;;;;;;5133426;27;20023;-73
2023/06/19 08:11:25;;;;;;;9.02;5.85;;;37.30;36.00;;;;;;5133685;27;20027;-73
2023/06/19 08:13:50;;;;;;;13.50;8.57;;;37.30;36.70;;;;;;5133151;27;20027;-73
2023/06/19 08:16:17;;;;;;;12.35;7.30;;;36.60;36.30;;;;;;5133619;27;20031;-73
2023/06/19 08:18:44;;;;;;;13.55;8.00;;;36.60;37.20;;;;;;5133706;27;20055;-73
2023/06/19 08:21:10;;;;;;;9.55;8.00;;;36.30;37.20;;;;;;5133485;27;20023;-73
2023/06/19 08:23:35;;;;;;;12.52;7.68;;;35.70;37.30;;;;;;5133552;27;20034;-73
2023/06/19 08:26:02;;;;;;;14.90;8.00;;;35.60;37.70;;;;;;5114804;27;20027;-73
2023/06/19 08:28:27;;;;;;;10.02;7.18;;;35.40;37.50;;;;;;5115189;27;20102;-73
2023/06/19 08:30:53;;;;;;;8.73;7.53;;;35.40;37.90;;;;;;5133230;27;20204;-73
2023/06/19 08:33:18;;;;;;;9.55;7.75;;;35.20;37.70;;;;;;5133768;27;20027;-73
2023/06/19 08:35:46;;;;;;;11.80;8.27;;;34.80;38.50;;;;;;5133561;27;20072;-73
2023/06/19 08:38:11;;;;;;;14.23;7.20;;;34.40;38.70;;;;;;5133898;27;20032;-73
2023/06/19 08:40:37;;;;;;;7.80;7.00;;;34.10;39.10;;;;;;5133886;28;20024;-72
2023/06/19 08:43:03;;;;;;;9.05;7.53;;;33.80;39.50;;;;;;5133011;28;20029;-73
2023/06/19 08:45:29;;;;;;;9.38;7.05;;;33.70;39.70;;;;;;5132906;28;20082;-73
2023/06/19 08:47:59;;;;;;;11.13;7.50;;;33.50;40.10;;;;;;5133264;28;20024;-73
2023/06/19 08:50:25;;;;;;;13.98;8.05;;;33.10;40.50;;;;;;5124487;28;20028;-72
2023/06/19 08:52:51;;;;;;;15.50;7.93;;;32.90;41.00;;;;;;5112480;28;20421;-73
2023/06/19 08:55:17;;;;;;;9.70;6.75;;;32.60;41.60;;;;;;5113192;28;20031;-73
2023/06/19 08:57:42;;;;;;;10.88;6.35;;;32.40;41.40;;;;;;5112593;28;20494;-73
2023/06/19 09:00:10;;;;;;;10.65;7.45;;;32.20;41.50;;;;;;5094049;28;20448;-73
2023/06/19 09:02:46;;;;;;;11.38;6.93;;;31.90;42.20;;;;;;5094533;28;20063;-73
2023/06/19 09:05:17;;;;;;;11.23;7.70;;;31.80;42.50;;;;;;5112297;28;20028;-73
2023/06/19 09:07:44;;;;;;;10.30;7.60;;;31.70;42.70;;;;;;5112559;28;20038;-72
2023/06/19 09:10:18;;;;;;;8.88;7.00;;;31.50;42.90;;;;;;5093976;28;20031;-73
2023/06/19 09:12:55;;;;;;;12.63;7.53;;;31.30;43.60;;;;;;5094597;28;20024;-73
2023/06/19 09:15:21;;;;;;;12.40;7.47;;;31.40;44.20;;;;;;5112765;28;20031;-72
2023/06/19 09:17:46;;;;;;;9.75;7.03;;;31.50;43.90;;;;;;5112745;28;20076;-72
2023/06/19 09:20:12;;;;;;;11.00;7.13;;;31.50;44.30;;;;;;5111993;28;20024;-73
2023/06/19 09:22:38;;;;;;;9.70;7.63;;;31.50;43.80;;;;;;5094323;28;20024;-72
2023/06/19 09:25:04;;;;;;;12.95;7.32;;;31.40;43.40;;;;;;5112248;28;20019;-73
2023/06/19 09:27:33;;;;;;;9.45;7.05;;;31.40;44.20;;;;;;5112534;28;20456;-72
2023/06/19 09:30:00;;;;;;;10.20;6.55;;;31.40;44.60;;;;;;5112229;28;20028;-72
2023/06/19 09:32:28;;;;;;;11.60;7.13;;;31.50;45.50;;;;;;5094177;28;20023;-71
2023/06/19 09:34:57;;;;;;;13.40;7.07;;;31.40;44.00;;;;;;5111874;28;20027;-72
2023/06/19 09:37:27;;;;;;;7.88;7.00;;;31.10;44.00;;;;;;5112146;28;20388;-72
2023/06/19 09:39:57;;;;;;;10.27;7.05;;;30.90;45.20;;;;;;5126614;27;20031;-72
2023/06/19 09:42:32;;;;;;;7.53;6.80;;;30.90;45.30;;;;;;5118372;27;20027;-72
2023/06/19 09:45:02;;;;;;;9.70;6.55;;;30.80;44.90;;;;;;5117720;27;20038;-73
2023/06/19 09:47:32;;;;;;;8.93;6.40;;;30.80;45.40;;;;;;5128784;27;20114;-72
2023/06/19 09:49:58;;;;;;;12.87;6.93;;;30.80;45.20;;;;;;5115715;28;20063;-72
2023/06/19 09:52:24;;;;;;;10.05;7.25;;;30.70;45.30;;;;;;5116130;28;20020;-71
2023/06/19 09:54:51;;;;;;;9.30;6.63;;;30.60;45.30;;;;;;5115785;28;20093;-72
2023/06/19 09:57:18;;;;;;;10.43;6.35;;;30.50;45.90;;;;;;5097307;28;20028;-72
2023/06/19 09:59:49;;;;;;;12.77;5.90;;;30.50;47.10;;;;;;5115559;28;20491;-74
2023/06/19 10:02:15;;;;;;;6.57;5.88;;;30.60;46.20;;;;;;5096991;28;20046;-72
2023/06/19 10:04:45;;;;;;;7.60;5.80;;;30.50;46.10;;;;;;5115490;28;20024;-73
2023/06/19 10:07:24;;;;;;;10.57;6.38;;;30.60;47.10;;;;;;5096607;28;20031;-72
2023/06/19 10:10:12;;;;;;;9.02;6.15;;;30.90;47.40;;;;;;5115897;28;20026;-72
2023/06/19 10:12:45;;;;;;;8.23;6.10;;;31.00;46.70;;;;;;5115745;28;20509;-71
2023/06/19 10:15:18;;;;;;;9.57;6.70;;;31.10;46.90;;;;;;5114789;28;20035;-71
2023/06/19 10:18:02;;;;;;;6.75;6.00;;;31.10;45.50;;;;;;5115216;28;20111;-72
2023/06/19 10:20:32;;;;;;;9.35;6.28;;;31.10;46.00;;;;;;5115490;28;20460;-73
2023/06/19 10:23:07;;;;;;;9.52;6.18;;;31.10;46.70;;;;;;5114983;28;20028;-73
2023/06/19 10:25:38;;;;;;;9.20;6.25;;;30.90;44.70;;;;;;5114876;28;20059;-72
2023/06/19 10:28:15;;;;;;;11.55;6.80;;;30.90;46.20;;;;;;5114257;28;20107;-74
2023/06/19 10:30:41;;;;;;;10.50;6.18;;;30.90;45.00;;;;;;5115205;28;20023;-73
2023/06/19 10:33:06;;;;;;;10.48;5.95;;;30.80;44.80;;;;;;5079620;28;20502;-73
2023/06/19 10:35:40;;;;;;;8.38;5.60;;;30.90;44.50;;;;;;5114615;28;20024;-72
2023/06/19 10:38:06;;;;;;;9.73;6.50;;;31.00;45.70;;;;;;5114577;28;20059;-72
2023/06/19 10:40:32;;;;;;;10.95;6.57;;;31.10;47.10;;;;;;5114976;28;20030;-72
2023/06/19 10:42:58;;;;;;;8.65;6.10;;;31.00;45.30;;;;;;5115525;27;20023;-73
2023/06/19 10:45:28;;;;;;;6.68;5.82;;;31.00;45.30;;;;;;5114469;28;20153;-72
2023/06/19 10:47:54;;;;;;;8.47;6.33;;;30.90;45.00;;;;;;5096520;28;20068;-73
2023/06/19 10:50:21;;;;;;;9.65;6.47;;;30.80;44.40;;;;;;5095210;28;20309;-72
2023/06/19 10:52:48;;;;;;;6.90;5.72;;;30.80;46.10;;;;;;5114163;28;20456;-73
2023/06/19 10:55:14;;;;;;;15.27;6.40;;;30.80;46.70;;;;;;5114033;28;20138;-72
2023/06/19 10:57:44;;;;;;;9.35;5.85;;;30.80;46.00;;;;;;5114435;28;20107;-72
2023/06/19 11:00:14;;;;;;;10.13;5.95;;;30.80;45.80;;;;;;5114069;28;20024;-72
2023/06/19 11:02:43;;;;;;;6.50;5.70;;;30.80;45.60;;;;;;5114112;28;20480;-73
2023/06/19 11:05:10;;;;;;;9.90;6.22;;;30.60;45.90;;;;;;5114024;28;20020;-73
2023/06/19 11:07:36;;;;;;;6.80;5.53;;;30.60;46.40;;;;;;5114364;28;20511;-73
2023/06/19 11:10:03;;;;;;;7.32;5.43;;;30.70;46.30;;;;;;5114091;28;20477;-72
2023/06/19 11:12:29;;;;;;;7.65;5.43;;;30.60;45.60;;;;;;5114294;28;20030;-73
2023/06/19 11:14:54;;;;;;;8.07;5.43;;;30.70;45.20;;;;;;5113737;28;20095;-71
2023/06/19 11:17:23;;;;;;;10.00;5.88;;;30.80;44.60;;;;;;5095386;28;20038;-73
2023/06/19 11:19:50;;;;;;;8.23;5.80;;;30.70;45.30;;;;;;5114142;28;20051;-72
2023/06/19 11:22:16;;;;;;;7.88;6.05;;;30.80;45.90;;;;;;5095520;28;20030;-73
2023/06/19 11:24:46;;;;;;;8.65;5.57;;;30.70;45.80;;;;;;5113797;28;20034;-73
2023/06/19 11:27:27;;;;;;;9.07;5.63;;;30.80;45.70;;;;;;5113515;28;20019;-73
2023/06/19 11:29:59;;;;;;;8.20;5.50;;;30.80;45.90;;;;;;5113895;28;20122;-71
2023/06/19 11:32:31;;;;;;;8.65;5.85;;;30.80;45.10;;;;;;5095144;28;20026;-72
2023/06/19 11:34:57;;;;;;;8.20;4.97;;;30.80;43.90;;;;;;5113774;28;20452;-72
2023/06/19 11:37:23;;;;;;;9.70;6.38;;;30.80;44.10;;;;;;5094810;28;20079;-72
2023/06/19 11:39:50;;;;;;;10.55;5.43;;;30.80;44.60;;;;;;5113651;28;20024;-73
2023/06/19 11:42:20;;;;;;;7.90;5.88;;;30.80;43.80;;;;;;5121946;27;20023;-72
2023/06/19 11:45:02;;;;;;;9.68;5.50;;;30.80;43.00;;;;;;5130938;27;20041;-73
2023/06/19 11:47:31;;;;;;;9.00;5.80;;;30.80;44.00;;;;;;5115818;27;20039;-73
2023/06/19 11:49:57;;;;;;;6.47;4.95;;;30.80;45.20;;;;;;5134088;27;20019;-72
2023/06/19 11:52:23;;;;;;;6.47;5.28;;;30.80;43.60;;;;;;5115139;27;20023;-72
2023/06/19 11:54:48;;;;;;;5.85;5.25;;;30.80;43.30;;;;;;5115387;27;20094;-71
2023/06/19 11:57:14;;;;;;;6.85;5.05;;;30.80;44.00;;;;;;5132675;27;20050;-71
2023/06/19 11:59:40;;;;;;;7.97;5.00;;;30.70;43.80;;;;;;5133978;27;20038;-71
2023/06/19 12:02:07;;;;;;;6.32;4.80;;;30.70;41.00;;;;;;5132398;27;20023;-71
2023/06/19 12:04:33;;;;;;;9.75;5.25;;;30.60;42.10;;;;;;5133657;27;20023;-72
2023/06/19 12:06:59;;;;;;;7.03;4.85;;;30.40;40.00;;;;;;5133462;27;20159;-72
2023/06/19 12:09:25;;;;;;;8.95;5.50;;;30.40;40.50;;;;;;5132929;27;20041;-73
2023/06/19 12:11:51;;;;;;;7.68;5.40;;;30.30;41.50;;;;;;5133336;27;20408;-72
2023/06/19 12:14:18;;;;;;;8.82;5.28;;;30.30;42.30;;;;;;5114607;27;20027;-72
2023/06/19 12:16:45;;;;;;;5.72;4.72;;;30.20;41.90;;;;;;5133369;27;20413;-73
2023/06/19 12:19:11;;;;;;;5.40;4.88;;;30.20;39.40;;;;;;5132475;27;20509;-72
2023/06/19 12:21:36;;;;;;;5.22;4.72;;;30.20;39.20;;;;;;5133009;27;20059;-72
2023/06/19 12:24:02;;;;;;;6.25;5.15;;;30.10;39.80;;;;;;5133069;27;20030;-76
2023/06/19 12:26:28;;;;;;;5.93;4.65;;;30.20;38.40;;;;;;5133485;27;20031;-72
2023/06/19 12:28:53;;;;;;;4.95;4.38;;;30.10;36.50;;;;;;5133419;27;20092;-71
2023/06/19 12:31:19;;;;;;;5.25;4.75;;;30.10;35.50;;;;;;5132721;27;20058;-72
2023/06/19 12:33:47;;;;;;;6.22;5.05;;;30.10;35.80;;;;;;5114913;28;20118;-72
2023/06/19 12:36:16;;;;;;;6.00;4.93;;;30.10;36.80;;;;;;5132745;27;20488;-72